createdAt,value
2019-05-25T00:00:17.267Z,12.99
2019-05-25T00:01:17.256Z,13.00
2019-05-25T00:02:17.256Z,12.99
2019-05-25T00:03:17.245Z,12.99
2019-05-25T00:04:17.225Z,12.95
2019-05-25T00:05:17.219Z,12.99
2019-05-25T00:06:17.210Z,13.00
2019-05-25T00:07:17.193Z,12.97
2019-05-25T00:08:17.199Z,12.92
2019-05-25T00:09:17.170Z,12.99
2019-05-25T00:10:17.167Z,13.00
2019-05-25T00:11:17.148Z,12.93
2019-05-25T00:12:17.140Z,12.85
2019-05-25T00:13:17.125Z,12.82
2019-05-25T00:14:17.127Z,12.70
2019-05-25T00:15:17.107Z,12.69
2019-05-25T00:16:17.094Z,12.75
2019-05-25T00:17:17.092Z,12.75
2019-05-25T00:18:17.072Z,12.64
2019-05-25T00:19:17.061Z,12.63
2019-05-25T00:20:17.064Z,12.52
2019-05-25T00:21:17.037Z,12.56
2019-05-25T00:22:17.026Z,12.54
2019-05-25T00:23:17.018Z,12.51
2019-05-25T00:24:17.006Z,12.52
2019-05-25T00:25:16.995Z,12.37
2019-05-25T00:26:16.998Z,12.44
2019-05-25T00:27:16.973Z,12.44
2019-05-25T00:28:16.960Z,12.30
2019-05-25T00:29:16.951Z,12.39
2019-05-25T00:30:16.962Z,12.31
2019-05-25T00:31:16.927Z,12.26
2019-05-25T00:32:16.926Z,12.33
2019-05-25T00:33:16.915Z,12.26
2019-05-25T00:34:16.897Z,12.27
2019-05-25T00:35:16.883Z,12.26
2019-05-25T00:36:16.873Z,12.26
2019-05-25T00:37:16.870Z,12.23
2019-05-25T00:38:16.862Z,12.29
2019-05-25T00:39:16.840Z,12.30
2019-05-25T00:40:16.828Z,12.26
2019-05-25T00:41:16.818Z,12.29
2019-05-25T00:42:16.808Z,12.26
2019-05-25T00:43:16.796Z,12.27
2019-05-25T00:44:16.816Z,12.24
2019-05-25T00:45:16.774Z,12.15
2019-05-25T00:46:16.766Z,12.13
2019-05-25T00:47:16.753Z,12.13
2019-05-25T00:48:16.741Z,12.16
2019-05-25T00:49:16.731Z,12.08
2019-05-25T00:50:16.732Z,12.09
2019-05-25T00:51:16.710Z,12.11
2019-05-25T00:52:16.702Z,12.11
2019-05-25T00:53:16.697Z,12.08
2019-05-25T00:54:27.537Z,12.16
2019-05-25T00:55:17.680Z,12.15
2019-05-25T00:56:16.657Z,12.08
2019-05-25T00:57:16.646Z,12.04
2019-05-25T00:58:16.636Z,11.99
2019-05-25T00:59:16.625Z,11.99
2019-05-25T01:00:16.622Z,12.01
2019-05-25T01:01:16.617Z,12.01
2019-05-25T01:02:16.592Z,12.01
2019-05-25T01:03:16.584Z,11.99
2019-05-25T01:04:16.572Z,12.02
2019-05-25T01:05:16.559Z,11.89
2019-05-25T01:06:16.549Z,11.93
2019-05-25T01:07:16.550Z,11.94
2019-05-25T01:08:16.527Z,11.90
2019-05-25T01:09:16.520Z,11.86
2019-05-25T01:10:16.505Z,11.80
2019-05-25T01:11:16.494Z,11.89
2019-05-25T01:12:16.487Z,11.89
2019-05-25T01:13:16.484Z,11.86
2019-05-25T01:14:16.464Z,11.75
2019-05-25T01:15:16.452Z,11.85
2019-05-25T01:16:16.442Z,11.78
2019-05-25T01:17:16.430Z,11.68
2019-05-25T01:18:16.419Z,11.65
2019-05-25T01:19:16.433Z,11.68
2019-05-25T01:20:16.397Z,11.70
2019-05-25T01:21:16.394Z,11.75
2019-05-25T01:22:16.375Z,11.67
2019-05-25T01:23:16.365Z,11.67
2019-05-25T01:24:16.355Z,11.68
2019-05-25T01:25:16.356Z,11.70
2019-05-25T01:26:16.332Z,11.74
2019-05-25T01:27:16.321Z,11.67
2019-05-25T01:28:16.311Z,11.71
2019-05-25T01:29:16.300Z,11.61
2019-05-25T01:30:16.288Z,11.67
2019-05-25T01:31:16.288Z,11.65
2019-05-25T01:32:16.267Z,11.71
2019-05-25T01:33:16.256Z,11.65
2019-05-25T01:34:16.248Z,11.70
2019-05-25T01:35:16.234Z,11.57
2019-05-25T01:36:16.223Z,11.68
2019-05-25T01:37:16.233Z,11.70
2019-05-25T01:38:16.202Z,11.67
2019-05-25T01:39:16.191Z,11.70
2019-05-25T01:40:16.183Z,11.72
2019-05-25T01:41:16.170Z,11.67
2019-05-25T01:42:16.160Z,11.67
2019-05-25T01:43:16.157Z,11.70
2019-05-25T01:44:16.145Z,11.61
2019-05-25T01:45:16.139Z,11.64
2019-05-25T01:46:16.117Z,11.57
2019-05-25T01:47:16.105Z,11.54
2019-05-25T01:48:16.093Z,11.59
2019-05-25T01:49:16.095Z,11.59
2019-05-25T01:50:16.071Z,11.54
2019-05-25T01:51:16.062Z,11.54
2019-05-25T01:52:16.051Z,11.39
2019-05-25T01:53:16.039Z,11.41
2019-05-25T01:54:16.029Z,11.34
2019-05-25T01:55:16.028Z,11.35
2019-05-25T01:56:16.006Z,11.32
2019-05-25T01:57:15.997Z,11.32
2019-05-25T01:58:15.983Z,11.31
2019-05-25T01:59:15.972Z,11.36
2019-05-25T02:00:15.964Z,11.34
2019-05-25T02:01:15.962Z,11.29
2019-05-25T02:02:15.943Z,11.36
2019-05-25T02:03:15.929Z,11.39
2019-05-25T02:04:15.919Z,11.31
2019-05-25T02:05:15.908Z,11.36
2019-05-25T02:06:15.897Z,11.31
2019-05-25T02:07:15.895Z,11.24
2019-05-25T02:08:15.874Z,11.28
2019-05-25T02:09:15.864Z,11.24
2019-05-25T02:10:15.852Z,11.34
2019-05-25T02:11:15.841Z,11.27
2019-05-25T02:12:15.831Z,11.24
2019-05-25T02:13:15.842Z,11.34
2019-05-25T02:14:15.810Z,11.34
2019-05-25T02:15:15.797Z,11.35
2019-05-25T02:16:15.788Z,11.32
2019-05-25T02:17:15.774Z,11.36
2019-05-25T02:18:15.769Z,11.35
2019-05-25T02:19:15.766Z,11.20
2019-05-25T02:20:15.745Z,11.35
2019-05-25T02:21:15.730Z,11.35
2019-05-25T02:22:15.720Z,11.29
2019-05-25T02:23:15.713Z,11.32
2019-05-25T02:24:15.698Z,11.35
2019-05-25T02:25:18.026Z,11.32
2019-05-25T02:26:15.676Z,11.32
2019-05-25T02:27:15.664Z,11.36
2019-05-25T02:28:15.655Z,11.34
2019-05-25T02:29:15.642Z,11.43
2019-05-25T02:30:15.633Z,11.32
2019-05-25T02:31:15.641Z,11.35
2019-05-25T02:32:15.617Z,11.39
2019-05-25T02:33:15.602Z,11.32
2019-05-25T02:34:15.589Z,11.32
2019-05-25T02:35:15.577Z,11.39
2019-05-25T02:36:15.565Z,11.24
2019-05-25T02:37:15.566Z,11.35
2019-05-25T02:38:15.545Z,11.25
2019-05-25T02:39:15.533Z,11.21
2019-05-25T02:40:15.521Z,11.24
2019-05-25T02:41:15.511Z,11.24
2019-05-25T02:42:15.501Z,11.29
2019-05-25T02:43:15.503Z,11.31
2019-05-25T02:44:15.477Z,11.29
2019-05-25T02:45:15.467Z,11.21
2019-05-25T02:46:15.456Z,11.21
2019-05-25T02:47:15.444Z,11.24
2019-05-25T02:48:15.433Z,11.14
2019-05-25T02:49:15.448Z,11.24
2019-05-25T02:50:15.411Z,11.19
2019-05-25T02:51:15.417Z,11.32
2019-05-25T02:52:15.393Z,11.38
2019-05-25T02:53:15.402Z,11.34
2019-05-25T02:54:15.373Z,11.41
2019-05-25T02:55:15.367Z,11.38
2019-05-25T02:56:15.349Z,11.44
2019-05-25T02:57:15.335Z,11.38
2019-05-25T02:58:15.325Z,11.38
2019-05-25T02:59:15.314Z,11.35
2019-05-25T03:00:15.312Z,11.38
2019-05-25T03:01:15.303Z,11.38
2019-05-25T03:02:15.282Z,11.36
2019-05-25T03:03:15.271Z,11.36
2019-05-25T03:04:15.260Z,11.32
2019-05-25T03:05:15.249Z,11.34
2019-05-25T03:06:15.258Z,11.21
2019-05-25T03:07:15.238Z,11.27
2019-05-25T03:08:15.216Z,11.16
2019-05-25T03:09:15.205Z,11.13
2019-05-25T03:10:15.195Z,11.01
2019-05-25T03:11:15.185Z,11.10
2019-05-25T03:12:15.174Z,11.10
2019-05-25T03:13:15.173Z,11.06
2019-05-25T03:14:15.155Z,11.07
2019-05-25T03:15:15.140Z,11.02
2019-05-25T03:16:15.130Z,11.07
2019-05-25T03:17:15.120Z,11.11
2019-05-25T03:18:15.111Z,11.02
2019-05-25T03:19:15.109Z,11.03
2019-05-25T03:20:15.097Z,11.02
2019-05-25T03:21:15.076Z,10.96
2019-05-25T03:22:15.065Z,11.01
2019-05-25T03:23:15.054Z,10.96
2019-05-25T03:24:15.042Z,10.92
2019-05-25T03:25:15.043Z,10.92
2019-05-25T03:26:15.022Z,10.91
2019-05-25T03:27:15.012Z,10.86
2019-05-25T03:28:15.002Z,10.94
2019-05-25T03:29:14.990Z,10.86
2019-05-25T03:30:14.982Z,10.95
2019-05-25T03:31:14.978Z,10.94
2019-05-25T03:32:14.961Z,10.81
2019-05-25T03:33:14.952Z,10.86
2019-05-25T03:34:14.939Z,10.78
2019-05-25T03:35:14.926Z,10.83
2019-05-25T03:36:14.914Z,10.70
2019-05-25T03:37:14.911Z,10.73
2019-05-25T03:38:14.894Z,10.78
2019-05-25T03:39:14.880Z,10.83
2019-05-25T03:40:14.868Z,10.81
2019-05-25T03:41:14.858Z,10.83
2019-05-25T03:42:14.847Z,10.86
2019-05-25T03:43:14.846Z,10.83
2019-05-25T03:44:14.823Z,10.86
2019-05-25T03:45:14.820Z,10.92
2019-05-25T03:46:14.802Z,10.91
2019-05-25T03:47:14.801Z,11.02
2019-05-25T03:48:14.782Z,10.99
2019-05-25T03:49:14.780Z,10.98
2019-05-25T03:50:14.757Z,11.10
2019-05-25T03:51:14.751Z,11.06
2019-05-25T03:52:14.736Z,11.07
2019-05-25T03:53:14.726Z,11.02
2019-05-25T03:54:14.722Z,11.16
2019-05-25T03:55:14.730Z,11.16
2019-05-25T03:56:14.694Z,11.19
2019-05-25T03:57:14.683Z,11.16
2019-05-25T03:58:14.670Z,11.20
2019-05-25T03:59:14.658Z,11.29
2019-05-25T04:00:14.651Z,11.21
2019-05-25T04:01:14.652Z,11.21
2019-05-25T04:02:14.627Z,11.25
2019-05-25T04:03:14.646Z,11.31
2019-05-25T04:04:14.605Z,11.38
2019-05-25T04:05:14.595Z,11.31
2019-05-25T04:06:14.583Z,11.28
2019-05-25T04:07:14.583Z,11.36
2019-05-25T04:08:14.562Z,11.31
2019-05-25T04:09:14.551Z,11.27
2019-05-25T04:10:14.542Z,11.35
2019-05-25T04:11:14.530Z,11.38
2019-05-25T04:12:14.518Z,11.32
2019-05-25T04:13:14.535Z,11.29
2019-05-25T04:14:14.497Z,11.29
2019-05-25T04:15:14.487Z,11.34
2019-05-25T04:16:14.477Z,11.41
2019-05-25T04:17:14.470Z,11.41
2019-05-25T04:18:14.454Z,11.41
2019-05-25T04:19:14.453Z,11.36
2019-05-25T04:20:14.433Z,11.46
2019-05-25T04:21:14.443Z,11.39
2019-05-25T04:22:14.412Z,11.44
2019-05-25T04:23:14.400Z,11.43
2019-05-25T04:24:14.389Z,11.50
2019-05-25T04:25:14.389Z,11.49
2019-05-25T04:26:22.459Z,11.50
2019-05-25T04:27:15.355Z,11.44
2019-05-25T04:28:14.346Z,11.43
2019-05-25T04:29:14.336Z,11.44
2019-05-25T04:30:14.325Z,11.44
2019-05-25T04:31:14.328Z,11.39
2019-05-25T04:32:14.303Z,11.44
2019-05-25T04:33:14.290Z,11.41
2019-05-25T04:34:14.281Z,11.49
2019-05-25T04:35:14.269Z,11.41
2019-05-25T04:36:14.258Z,11.46
2019-05-25T04:37:14.267Z,11.46
2019-05-25T04:38:14.236Z,11.57
2019-05-25T04:39:14.238Z,11.54
2019-05-25T04:40:14.214Z,11.62
2019-05-25T04:41:14.203Z,11.70
2019-05-25T04:42:14.192Z,11.54
2019-05-25T04:43:14.194Z,11.65
2019-05-25T04:44:14.170Z,11.65
2019-05-25T04:45:14.159Z,11.65
2019-05-25T04:46:14.148Z,11.70
2019-05-25T04:47:26.470Z,11.71
2019-05-25T04:48:15.208Z,11.80
2019-05-25T04:49:14.115Z,11.80
2019-05-25T04:50:14.104Z,11.80
2019-05-25T04:51:14.098Z,11.89
2019-05-25T04:52:14.081Z,11.83
2019-05-25T04:53:14.070Z,11.78
2019-05-25T04:54:14.071Z,11.89
2019-05-25T04:55:14.049Z,11.78
2019-05-25T04:56:14.038Z,11.87
2019-05-25T04:57:14.070Z,11.89
2019-05-25T04:58:14.022Z,11.99
2019-05-25T04:59:14.006Z,12.04
2019-05-25T05:00:14.007Z,12.05
2019-05-25T05:01:14.019Z,12.04
2019-05-25T05:02:13.973Z,12.12
2019-05-25T05:03:13.984Z,12.12
2019-05-25T05:04:13.963Z,12.08
2019-05-25T05:05:13.938Z,12.20
2019-05-25T05:06:13.938Z,12.20
2019-05-25T05:07:13.919Z,12.16
2019-05-25T05:08:13.906Z,12.29
2019-05-25T05:09:13.899Z,12.24
2019-05-25T05:10:13.885Z,12.26
2019-05-25T05:11:13.876Z,12.33
2019-05-25T05:12:13.877Z,12.29
2019-05-25T05:13:13.853Z,12.33
2019-05-25T05:14:13.846Z,12.31
2019-05-25T05:15:13.831Z,12.29
2019-05-25T05:16:13.822Z,12.27
2019-05-25T05:17:13.811Z,12.29
2019-05-25T05:18:13.810Z,12.41
2019-05-25T05:19:13.809Z,12.39
2019-05-25T05:20:13.778Z,12.42
2019-05-25T05:21:13.769Z,12.48
2019-05-25T05:22:13.759Z,12.46
2019-05-25T05:23:13.748Z,12.51
2019-05-25T05:24:13.747Z,12.52
2019-05-25T05:25:13.725Z,12.52
2019-05-25T05:26:13.714Z,12.49
2019-05-25T05:27:13.717Z,12.60
2019-05-25T05:28:13.692Z,12.69
2019-05-25T05:29:13.683Z,12.71
2019-05-25T05:30:13.681Z,12.67
2019-05-25T05:31:23.266Z,12.74
2019-05-25T05:32:26.660Z,12.71
2019-05-25T05:33:14.640Z,12.77
2019-05-25T05:34:13.635Z,12.82
2019-05-25T05:35:13.615Z,12.89
2019-05-25T05:36:13.615Z,12.99
2019-05-25T05:37:13.594Z,13.03
2019-05-25T05:38:13.583Z,13.03
2019-05-25T05:39:13.572Z,13.02
2019-05-25T05:40:13.561Z,13.07
2019-05-25T05:41:13.549Z,13.15
2019-05-25T05:42:13.549Z,13.15
2019-05-25T05:43:13.528Z,13.12
2019-05-25T05:44:13.522Z,13.15
2019-05-25T05:45:13.512Z,13.15
2019-05-25T05:46:13.496Z,13.24
2019-05-25T05:47:13.487Z,13.21
2019-05-25T05:48:13.489Z,13.12
2019-05-25T05:49:13.465Z,13.12
2019-05-25T05:50:13.456Z,13.15
2019-05-25T05:51:13.442Z,13.17
2019-05-25T05:52:13.431Z,13.15
2019-05-25T05:53:13.421Z,13.18
2019-05-25T05:54:13.466Z,13.17
2019-05-25T05:55:13.401Z,13.09
2019-05-25T05:56:13.389Z,13.20
2019-05-25T05:57:13.396Z,13.21
2019-05-25T05:58:13.367Z,13.11
2019-05-25T05:59:13.357Z,13.17
2019-05-25T06:00:13.371Z,13.30
2019-05-25T06:01:13.336Z,13.21
2019-05-25T06:02:13.326Z,13.15
2019-05-25T06:03:13.342Z,13.17
2019-05-25T06:04:13.303Z,13.24
2019-05-25T06:05:13.296Z,13.18
2019-05-25T06:06:13.294Z,13.24
2019-05-25T06:07:13.348Z,13.29
2019-05-25T06:08:13.262Z,13.29
2019-05-25T06:09:13.252Z,13.33
2019-05-25T06:10:13.241Z,13.36
2019-05-25T06:11:13.275Z,13.30
2019-05-25T06:12:13.231Z,13.38
2019-05-25T06:13:13.209Z,13.51
2019-05-25T06:14:13.198Z,13.41
2019-05-25T06:15:13.186Z,13.59
2019-05-25T06:16:13.180Z,13.49
2019-05-25T06:17:13.167Z,13.69
2019-05-25T06:18:13.175Z,13.69
2019-05-25T06:19:13.144Z,13.65
2019-05-25T06:20:13.133Z,13.77
2019-05-25T06:21:13.123Z,13.81
2019-05-25T06:22:13.111Z,13.80
2019-05-25T06:23:13.100Z,13.79
2019-05-25T06:24:13.106Z,13.89
2019-05-25T06:25:13.077Z,13.88
2019-05-25T06:26:13.067Z,13.79
2019-05-25T06:27:26.556Z,13.89
2019-05-25T06:28:14.042Z,13.79
2019-05-25T06:29:13.032Z,13.73
2019-05-25T06:30:13.033Z,13.70
2019-05-25T06:31:13.010Z,13.76
2019-05-25T06:32:12.999Z,13.83
2019-05-25T06:33:12.987Z,13.81
2019-05-25T06:34:12.977Z,13.96
2019-05-25T06:35:12.966Z,13.89
2019-05-25T06:36:12.974Z,13.92
2019-05-25T06:37:12.949Z,14.04
2019-05-25T06:38:12.933Z,13.95
2019-05-25T06:39:12.921Z,14.06
2019-05-25T06:40:12.913Z,14.01
2019-05-25T06:41:12.909Z,14.02
2019-05-25T06:42:12.905Z,13.77
2019-05-25T06:43:12.877Z,13.65
2019-05-25T06:44:12.867Z,13.69
2019-05-25T06:45:12.859Z,13.71
2019-05-25T06:46:12.845Z,13.77
2019-05-25T06:47:12.833Z,13.83
2019-05-25T06:48:12.835Z,13.99
2019-05-25T06:49:12.812Z,14.09
2019-05-25T06:50:12.802Z,14.29
2019-05-25T06:51:12.790Z,14.27
2019-05-25T06:52:12.781Z,14.37
2019-05-25T06:53:12.770Z,14.39
2019-05-25T06:54:12.770Z,14.49
2019-05-25T06:55:12.751Z,14.47
2019-05-25T06:56:12.737Z,14.56
2019-05-25T06:57:12.726Z,14.52
2019-05-25T06:58:12.716Z,14.44
2019-05-25T06:59:12.706Z,14.52
2019-05-25T07:00:12.707Z,14.62
2019-05-25T07:01:12.684Z,14.64
2019-05-25T07:02:12.673Z,14.61
2019-05-25T07:03:12.663Z,14.61
2019-05-25T07:04:12.654Z,14.61
2019-05-25T07:05:12.641Z,14.57
2019-05-25T07:06:12.648Z,14.37
2019-05-25T07:07:12.619Z,14.24
2019-05-25T07:08:12.609Z,14.16
2019-05-25T07:09:12.600Z,14.14
2019-05-25T07:10:12.588Z,14.14
2019-05-25T07:11:12.577Z,14.21
2019-05-25T07:12:12.577Z,14.20
2019-05-25T07:13:12.557Z,14.24
2019-05-25T07:14:12.545Z,14.20
2019-05-25T07:15:12.535Z,14.34
2019-05-25T07:16:12.555Z,14.29
2019-05-25T07:17:12.513Z,14.31
2019-05-25T07:18:12.512Z,14.13
2019-05-25T07:19:12.492Z,14.10
2019-05-25T07:20:12.482Z,14.06
2019-05-25T07:21:12.471Z,14.06
2019-05-25T07:22:12.460Z,14.13
2019-05-25T07:23:12.449Z,14.14
2019-05-25T07:24:12.466Z,14.21
2019-05-25T07:25:12.428Z,14.35
2019-05-25T07:26:12.414Z,14.42
2019-05-25T07:27:12.404Z,14.52
2019-05-25T07:28:12.393Z,14.53
2019-05-25T07:29:12.384Z,14.50
2019-05-25T07:30:12.383Z,14.61
2019-05-25T07:31:12.361Z,14.65
2019-05-25T07:32:12.353Z,14.64
2019-05-25T07:33:12.339Z,14.67
2019-05-25T07:34:12.331Z,14.69
2019-05-25T07:35:12.326Z,14.68
2019-05-25T07:36:12.321Z,14.78
2019-05-25T07:37:12.296Z,14.64
2019-05-25T07:38:12.286Z,14.64
2019-05-25T07:39:12.275Z,14.31
2019-05-25T07:40:12.274Z,14.25
2019-05-25T07:41:12.254Z,14.21
2019-05-25T07:42:12.254Z,14.21
2019-05-25T07:43:12.232Z,14.21
2019-05-25T07:44:12.221Z,14.21
2019-05-25T07:45:12.210Z,14.25
2019-05-25T07:46:12.264Z,14.13
2019-05-25T07:47:12.189Z,14.01
2019-05-25T07:48:12.187Z,14.13
2019-05-25T07:49:12.167Z,14.20
2019-05-25T07:50:12.157Z,14.38
2019-05-25T07:51:12.147Z,14.37
2019-05-25T07:52:12.136Z,14.49
2019-05-25T07:53:12.122Z,14.49
2019-05-25T07:54:12.122Z,14.61
2019-05-25T07:55:12.112Z,14.65
2019-05-25T07:56:12.091Z,14.75
2019-05-25T07:57:12.079Z,14.84
2019-05-25T07:58:17.692Z,14.87
2019-05-25T07:59:13.068Z,14.99
2019-05-25T08:00:12.048Z,14.93
2019-05-25T08:01:12.038Z,14.98
2019-05-25T08:02:12.026Z,15.08
2019-05-25T08:03:12.019Z,15.13
2019-05-25T08:04:12.006Z,15.21
2019-05-25T08:05:12.006Z,15.20
2019-05-25T08:06:11.983Z,15.28
2019-05-25T08:07:11.971Z,15.43
2019-05-25T08:08:11.983Z,15.38
2019-05-25T08:09:11.950Z,15.61
2019-05-25T08:10:11.945Z,15.70
2019-05-25T08:11:11.960Z,15.79
2019-05-25T08:12:11.916Z,15.81
2019-05-25T08:13:11.906Z,15.86
2019-05-25T08:14:11.894Z,15.82
2019-05-25T08:15:11.884Z,15.82
2019-05-25T08:16:11.873Z,15.79
2019-05-25T08:17:11.931Z,15.74
2019-05-25T08:18:11.852Z,15.68
2019-05-25T08:19:11.844Z,15.66
2019-05-25T08:20:11.895Z,15.82
2019-05-25T08:21:11.820Z,16.18
2019-05-25T08:22:11.813Z,16.37
2019-05-25T08:23:11.811Z,16.42
2019-05-25T08:24:11.786Z,16.63
2019-05-25T08:25:11.777Z,16.74
2019-05-25T08:26:11.765Z,16.67
2019-05-25T08:27:11.755Z,16.74
2019-05-25T08:28:11.745Z,16.67
2019-05-25T08:29:11.744Z,16.58
2019-05-25T08:30:11.723Z,16.30
2019-05-25T08:31:11.710Z,16.40
2019-05-25T08:32:11.700Z,16.26
2019-05-25T08:33:11.689Z,16.35
2019-05-25T08:34:11.677Z,16.23
2019-05-25T08:35:11.682Z,16.37
2019-05-25T08:36:11.656Z,16.30
2019-05-25T08:37:11.645Z,16.42
2019-05-25T08:38:11.634Z,16.38
2019-05-25T08:39:11.624Z,16.38
2019-05-25T08:40:11.611Z,16.34
2019-05-25T08:41:11.638Z,16.38
2019-05-25T08:42:11.590Z,16.35
2019-05-25T08:43:11.580Z,16.22
2019-05-25T08:44:11.570Z,16.25
2019-05-25T08:45:11.558Z,16.06
2019-05-25T08:46:11.546Z,16.06
2019-05-25T08:47:11.553Z,16.00
2019-05-25T08:48:11.526Z,16.06
2019-05-25T08:49:11.515Z,16.06
2019-05-25T08:50:11.503Z,16.06
2019-05-25T08:51:11.492Z,16.04
2019-05-25T08:52:11.485Z,16.03
2019-05-25T08:53:11.482Z,16.07
2019-05-25T08:54:11.592Z,16.09
2019-05-25T08:55:11.451Z,16.11
2019-05-25T08:56:11.439Z,16.12
2019-05-25T08:57:14.141Z,16.06
2019-05-25T08:58:12.466Z,16.22
2019-05-25T08:59:11.408Z,16.22
2019-05-25T09:00:11.399Z,16.30
2019-05-25T09:01:11.389Z,16.25
2019-05-25T09:02:11.375Z,16.27
2019-05-25T09:03:11.364Z,16.30
2019-05-25T09:04:11.385Z,16.44
2019-05-25T09:05:11.349Z,16.50
2019-05-25T09:06:11.334Z,16.59
2019-05-25T09:07:11.322Z,16.53
2019-05-25T09:08:11.312Z,16.68
2019-05-25T09:09:11.301Z,16.83
2019-05-25T09:10:11.301Z,16.98
2019-05-25T09:11:11.279Z,17.15
2019-05-25T09:12:11.267Z,17.13
2019-05-25T09:13:11.264Z,17.26
2019-05-25T09:14:11.244Z,17.32
2019-05-25T09:15:11.233Z,17.44
2019-05-25T09:16:11.233Z,17.48
2019-05-25T09:17:11.511Z,17.38
2019-05-25T09:18:11.267Z,17.43
2019-05-25T09:19:11.194Z,17.47
2019-05-25T09:20:11.416Z,17.33
2019-05-25T09:21:11.176Z,17.38
2019-05-25T09:22:11.170Z,17.50
2019-05-25T09:23:11.146Z,17.63
2019-05-25T09:24:11.153Z,17.79
2019-05-25T09:25:11.126Z,17.87
2019-05-25T09:26:13.361Z,17.85
2019-05-25T09:27:11.103Z,17.85
2019-05-25T09:28:11.127Z,17.82
2019-05-25T09:29:11.082Z,17.79
2019-05-25T09:30:11.078Z,17.85
2019-05-25T09:31:11.061Z,17.94
2019-05-25T09:32:11.059Z,17.84
2019-05-25T09:33:11.039Z,17.81
2019-05-25T09:34:11.039Z,18.02
2019-05-25T09:35:11.022Z,18.13
2019-05-25T09:36:11.008Z,18.07
2019-05-25T09:37:10.996Z,17.91
2019-05-25T09:38:10.985Z,17.64
2019-05-25T09:39:10.975Z,17.51
2019-05-25T09:40:10.982Z,17.59
2019-05-25T09:41:10.955Z,17.85
2019-05-25T09:42:10.941Z,17.87
2019-05-25T09:43:10.932Z,17.85
2019-05-25T09:44:10.923Z,17.78
2019-05-25T09:45:14.058Z,17.74
2019-05-25T09:46:10.915Z,17.89
2019-05-25T09:47:10.889Z,18.00
2019-05-25T09:48:10.878Z,18.09
2019-05-25T09:49:10.868Z,18.21
2019-05-25T09:50:10.858Z,18.43
2019-05-25T09:51:15.240Z,18.52
2019-05-25T09:52:10.845Z,18.68
2019-05-25T09:53:10.826Z,18.65
2019-05-25T09:54:10.818Z,18.67
2019-05-25T09:55:10.870Z,18.67
2019-05-25T09:56:10.792Z,18.72
2019-05-25T09:57:10.809Z,18.57
2019-05-25T09:58:10.837Z,18.39
2019-05-25T09:59:19.671Z,18.40
2019-05-25T10:00:11.747Z,18.34
2019-05-25T10:01:10.746Z,18.40
2019-05-25T10:02:10.847Z,18.44
2019-05-25T10:03:10.726Z,18.47
2019-05-25T10:04:10.722Z,18.47
2019-05-25T10:05:10.890Z,18.34
2019-05-25T10:06:13.225Z,18.21
2019-05-25T10:07:10.676Z,18.03
2019-05-25T10:08:10.662Z,18.02
2019-05-25T10:09:10.651Z,18.03
2019-05-25T10:10:10.655Z,18.03
2019-05-25T10:11:10.898Z,18.18
2019-05-25T10:12:10.815Z,18.29
2019-05-25T10:13:10.610Z,18.49
2019-05-25T10:14:10.596Z,18.62
2019-05-25T10:15:10.586Z,18.77
2019-05-25T10:16:10.622Z,18.84
2019-05-25T10:17:10.564Z,18.84
2019-05-25T10:18:10.558Z,18.72
2019-05-25T10:19:10.543Z,18.67
2019-05-25T10:20:10.539Z,18.49
2019-05-25T10:21:10.521Z,18.18
2019-05-25T10:22:10.526Z,18.00
2019-05-25T10:23:10.499Z,18.00
2019-05-25T10:24:10.487Z,18.06
2019-05-25T10:25:10.480Z,18.18
2019-05-25T10:26:10.466Z,18.22
2019-05-25T10:27:10.459Z,18.33
2019-05-25T10:28:10.455Z,18.36
2019-05-25T10:29:10.434Z,18.50
2019-05-25T10:30:10.424Z,18.62
2019-05-25T10:31:10.418Z,18.61
2019-05-25T10:32:10.402Z,18.77
2019-05-25T10:33:10.391Z,18.65
2019-05-25T10:34:10.390Z,18.46
2019-05-25T10:35:10.368Z,17.87
2019-05-25T10:36:10.360Z,17.70
2019-05-25T10:37:10.348Z,17.63
2019-05-25T10:38:10.337Z,17.63
2019-05-25T10:39:10.325Z,17.70
2019-05-25T10:40:10.325Z,17.88
2019-05-25T10:41:10.304Z,17.94
2019-05-25T10:42:10.294Z,18.02
2019-05-25T10:43:10.284Z,17.84
2019-05-25T10:44:10.273Z,17.53
2019-05-25T10:45:10.262Z,17.50
2019-05-25T10:46:10.262Z,17.03
2019-05-25T10:47:10.239Z,16.93
2019-05-25T10:48:10.229Z,17.03
2019-05-25T10:49:11.826Z,17.08
2019-05-25T10:50:10.303Z,17.25
2019-05-25T10:51:10.196Z,17.44
2019-05-25T10:52:10.195Z,17.54
2019-05-25T10:53:10.174Z,17.59
2019-05-25T10:54:10.165Z,17.78
2019-05-25T10:55:10.158Z,17.94
2019-05-25T10:56:10.144Z,17.81
2019-05-25T10:57:13.097Z,17.82
2019-05-25T10:58:10.131Z,17.82
2019-05-25T10:59:10.109Z,17.88
2019-05-25T11:00:10.100Z,17.53
2019-05-25T11:01:10.088Z,17.54
2019-05-25T11:02:10.079Z,17.48
2019-05-25T11:03:10.074Z,17.32
2019-05-25T11:04:10.068Z,17.25
2019-05-25T11:05:10.051Z,17.48
2019-05-25T11:06:10.039Z,17.55
2019-05-25T11:07:10.025Z,17.59
2019-05-25T11:08:10.014Z,17.73
2019-05-25T11:09:10.014Z,17.76
2019-05-25T11:10:10.006Z,17.67
2019-05-25T11:11:09.982Z,17.82
2019-05-25T11:12:09.971Z,17.81
2019-05-25T11:13:09.959Z,17.76
2019-05-25T11:14:09.949Z,17.64
2019-05-25T11:15:09.940Z,17.62
2019-05-25T11:16:09.939Z,17.66
2019-05-25T11:17:09.916Z,17.79
2019-05-25T11:18:09.907Z,17.74
2019-05-25T11:19:09.894Z,17.89
2019-05-25T11:20:09.887Z,17.85
2019-05-25T11:21:09.871Z,17.91
2019-05-25T11:22:09.875Z,17.99
2019-05-25T11:23:09.851Z,17.87
2019-05-25T11:24:09.839Z,17.87
2019-05-25T11:25:09.835Z,17.97
2019-05-25T11:26:09.818Z,18.03
2019-05-25T11:27:09.808Z,18.06
2019-05-25T11:28:09.818Z,18.03
2019-05-25T11:29:09.787Z,18.02
2019-05-25T11:30:10.327Z,18.17
2019-05-25T11:31:09.772Z,18.10
2019-05-25T11:32:09.802Z,17.99
2019-05-25T11:33:09.745Z,17.73
2019-05-25T11:34:09.743Z,17.67
2019-05-25T11:35:09.723Z,17.81
2019-05-25T11:36:09.712Z,17.84
2019-05-25T11:37:09.702Z,17.95
2019-05-25T11:38:09.691Z,18.00
2019-05-25T11:39:09.680Z,18.15
2019-05-25T11:40:09.687Z,18.06
2019-05-25T11:41:09.658Z,17.88
2019-05-25T11:42:09.649Z,17.95
2019-05-25T11:43:09.643Z,17.97
2019-05-25T11:44:09.626Z,18.12
2019-05-25T11:45:09.616Z,18.33
2019-05-25T11:46:09.616Z,18.37
2019-05-25T11:47:09.599Z,18.44
2019-05-25T11:48:09.583Z,18.55
2019-05-25T11:49:22.259Z,18.76
2019-05-25T11:50:10.562Z,18.82
2019-05-25T11:51:09.570Z,19.05
2019-05-25T11:52:09.551Z,19.21
2019-05-25T11:53:09.531Z,19.32
2019-05-25T11:54:09.520Z,19.32
2019-05-25T11:55:09.507Z,19.50
2019-05-25T11:56:09.512Z,19.38
2019-05-25T11:57:09.485Z,19.48
2019-05-25T11:58:09.487Z,19.35
2019-05-25T11:59:09.464Z,19.38
2019-05-25T12:00:23.720Z,19.46
2019-05-25T12:01:10.441Z,19.40
2019-05-25T12:02:09.432Z,19.47
2019-05-25T12:03:09.425Z,19.50
2019-05-25T12:04:09.422Z,19.55
2019-05-25T12:05:09.418Z,19.47
2019-05-25T12:06:09.393Z,19.31
2019-05-25T12:07:09.379Z,19.23
2019-05-25T12:08:09.371Z,19.15
2019-05-25T12:09:09.358Z,19.01
2019-05-25T12:10:09.359Z,18.98
2019-05-25T12:11:09.336Z,18.90
2019-05-25T12:12:09.325Z,18.95
2019-05-25T12:13:09.315Z,18.94
2019-05-25T12:14:09.304Z,18.94
2019-05-25T12:15:09.293Z,18.84
2019-05-25T12:16:09.294Z,18.91
2019-05-25T12:17:09.328Z,18.99
2019-05-25T12:18:09.290Z,19.06
2019-05-25T12:19:09.251Z,19.11
2019-05-25T12:20:09.242Z,19.20
2019-05-25T12:21:09.230Z,19.20
2019-05-25T12:22:09.230Z,19.14
2019-05-25T12:23:09.242Z,19.20
2019-05-25T12:24:09.198Z,19.29
2019-05-25T12:25:09.187Z,19.29
2019-05-25T12:26:09.180Z,19.33
2019-05-25T12:27:09.167Z,19.38
2019-05-25T12:28:09.169Z,19.50
2019-05-25T12:29:09.143Z,19.57
2019-05-25T12:30:09.136Z,19.58
2019-05-25T12:31:09.123Z,19.46
2019-05-25T12:32:09.111Z,19.43
2019-05-25T12:33:09.099Z,19.50
2019-05-25T12:34:09.100Z,19.39
2019-05-25T12:35:09.077Z,19.38
2019-05-25T12:36:09.067Z,19.43
2019-05-25T12:37:09.057Z,19.63
2019-05-25T12:38:09.044Z,19.75
2019-05-25T12:39:09.033Z,19.87
2019-05-25T12:40:09.036Z,19.93
2019-05-25T12:41:09.012Z,20.05
2019-05-25T12:42:09.003Z,19.98
2019-05-25T12:43:08.990Z,20.10
2019-05-25T12:44:08.979Z,20.12
2019-05-25T12:45:08.969Z,20.23
2019-05-25T12:46:08.975Z,19.95
2019-05-25T12:47:08.950Z,19.86
2019-05-25T12:48:08.942Z,19.68
2019-05-25T12:49:08.928Z,19.36
2019-05-25T12:50:08.915Z,19.29
2019-05-25T12:51:08.905Z,19.20
2019-05-25T12:52:08.905Z,19.20